Time;durP1;ratioP1;P1;durP2;ratioP2;P2;SDS_P1;SDS_P2;PMS_P1;PMS_P2;Temp;Humidity;BMP_temperature;BMP_pressure;BME280_temperature;BME280_humidity;BME280_pressure;Samples;Min_cycle;Max_cycle;Signal;HPM_P1;HPM_P2
2023/12/18 00:00:47;;;;;;;11.18;7.07;;;2.30;76.10;;;;;;5056030;28;20222;-84
2023/12/18 00:05:59;;;;;;;7.00;4.93;;;2.40;77.00;;;;;;5055612;28;20197;-84
2023/12/18 00:08:26;;;;;;;7.43;4.93;;;2.40;77.90;;;;;;5055857;28;20548;-84
2023/12/18 00:10:53;;;;;;;9.90;6.13;;;2.50;77.90;;;;;;5055244;28;20522;-84
2023/12/18 00:13:20;;;;;;;15.30;7.07;;;2.50;77.20;;;;;;5055609;28;20190;-84
2023/12/18 00:15:48;;;;;;;10.40;5.82;;;2.60;76.70;;;;;;5055244;28;20274;-84
2023/12/18 00:18:15;;;;;;;9.55;6.65;;;2.60;76.10;;;;;;5055601;28;20616;-84
2023/12/18 00:20:42;;;;;;;11.38;6.80;;;2.70;75.50;;;;;;5055382;28;20606;-84
2023/12/18 00:23:09;;;;;;;10.25;5.05;;;2.60;74.70;;;;;;5055423;28;20301;-84
2023/12/18 00:25:38;;;;;;;8.73;4.93;;;2.70;74.80;;;;;;5055169;28;20760;-84
2023/12/18 00:28:05;;;;;;;6.90;5.15;;;2.70;74.60;;;;;;5055605;28;20214;-84
2023/12/18 00:30:32;;;;;;;9.52;6.70;;;2.60;74.90;;;;;;5054886;28;20274;-84
2023/12/18 00:33:00;;;;;;;7.68;5.50;;;2.60;75.00;;;;;;5055419;28;20278;-84
2023/12/18 00:35:28;;;;;;;7.03;4.75;;;2.60;75.20;;;;;;5054977;28;20237;-84
2023/12/18 00:37:55;;;;;;;7.25;5.60;;;2.50;75.30;;;;;;5054979;28;20560;-84
2023/12/18 00:40:22;;;;;;;9.20;5.55;;;2.50;75.50;;;;;;5055276;28;20223;-84
2023/12/18 00:42:49;;;;;;;12.00;5.45;;;2.50;75.70;;;;;;5054929;28;20277;-84
2023/12/18 00:45:16;;;;;;;7.57;5.30;;;2.50;75.30;;;;;;5055059;28;20211;-85
2023/12/18 00:47:43;;;;;;;8.55;6.18;;;2.50;73.60;;;;;;5055230;28;20669;-84
2023/12/18 00:50:11;;;;;;;6.53;4.88;;;2.50;72.60;;;;;;5055122;28;20546;-84
2023/12/18 00:52:38;;;;;;;8.63;5.45;;;2.50;72.40;;;;;;5053843;28;20226;-85
2023/12/18 00:55:07;;;;;;;8.52;5.80;;;2.50;72.10;;;;;;5054944;28;20194;-84
2023/12/18 00:57:34;;;;;;;8.30;5.47;;;2.50;71.50;;;;;;5054917;28;20281;-83
2023/12/18 01:00:02;;;;;;;8.35;6.00;;;2.40;71.90;;;;;;5054776;28;20230;-85
2023/12/18 01:02:29;;;;;;;9.13;5.88;;;2.40;72.60;;;;;;5054525;28;20278;-84
2023/12/18 01:04:56;;;;;;;9.27;5.65;;;2.40;72.40;;;;;;5054381;28;20714;-84
2023/12/18 01:07:24;;;;;;;8.68;5.45;;;2.40;72.30;;;;;;5054725;28;20285;-84
2023/12/18 01:09:56;;;;;;;7.60;5.60;;;2.40;72.20;;;;;;5054354;28;20187;-84
2023/12/18 01:12:23;;;;;;;8.93;5.70;;;2.30;72.00;;;;;;5054639;28;20612;-84
2023/12/18 01:14:50;;;;;;;9.38;6.15;;;2.30;72.30;;;;;;5054551;28;20596;-85
2023/12/18 01:17:17;;;;;;;9.85;5.32;;;2.30;72.60;;;;;;5054425;28;20268;-84
2023/12/18 01:19:44;;;;;;;9.00;5.97;;;2.30;72.70;;;;;;5054224;28;20550;-84
2023/12/18 01:22:11;;;;;;;12.70;6.15;;;2.30;72.40;;;;;;5054540;28;20191;-84
2023/12/18 01:24:39;;;;;;;7.45;5.40;;;2.30;72.30;;;;;;5053940;28;20298;-84
2023/12/18 01:27:07;;;;;;;11.98;6.20;;;2.30;72.30;;;;;;5054116;28;20599;-81
2023/12/18 01:29:33;;;;;;;7.70;5.53;;;2.30;72.10;;;;;;5054207;28;20286;-85
2023/12/18 01:32:00;;;;;;;11.55;6.55;;;2.20;71.40;;;;;;5053661;28;20187;-85
2023/12/18 01:34:27;;;;;;;8.10;5.28;;;2.10;71.40;;;;;;5053975;28;20282;-85
2023/12/18 01:36:54;;;;;;;7.30;3.88;;;2.10;71.00;;;;;;5054161;28;20256;-85
2023/12/18 01:39:22;;;;;;;7.20;4.97;;;2.10;69.60;;;;;;5054163;28;20610;-85
2023/12/18 01:41:50;;;;;;;4.72;4.10;;;2.10;68.80;;;;;;5053819;28;20234;-84
2023/12/18 01:44:17;;;;;;;6.35;4.45;;;2.10;68.40;;;;;;5053665;28;20301;-84
2023/12/18 01:46:46;;;;;;;8.15;4.72;;;2.10;68.60;;;;;;5053362;28;20655;-85
2023/12/18 01:49:13;;;;;;;7.85;4.25;;;2.10;69.20;;;;;;5054177;28;20203;-85
2023/12/18 01:51:40;;;;;;;8.35;4.55;;;2.00;69.40;;;;;;5054155;28;20195;-84
2023/12/18 01:54:07;;;;;;;7.60;5.28;;;2.00;69.70;;;;;;5053861;28;20593;-85
2023/12/18 01:56:35;;;;;;;6.63;5.55;;;1.90;70.40;;;;;;5053594;28;20191;-85
2023/12/18 01:59:04;;;;;;;6.60;4.70;;;1.80;70.80;;;;;;5053524;28;20353;-85
2023/12/18 02:01:31;;;;;;;6.60;4.57;;;1.80;71.30;;;;;;5053819;28;20236;-85
2023/12/18 02:03:59;;;;;;;5.93;4.00;;;1.80;72.00;;;;;;5052829;28;20246;-85
2023/12/18 02:06:27;;;;;;;6.82;4.75;;;1.80;72.40;;;;;;5053786;28;20278;-85
2023/12/18 02:08:54;;;;;;;5.85;4.47;;;1.80;72.20;;;;;;5053394;28;20214;-85
2023/12/18 02:11:21;;;;;;;8.10;4.63;;;1.80;72.10;;;;;;5053423;28;20190;-84
2023/12/18 02:13:48;;;;;;;8.68;5.32;;;1.80;72.00;;;;;;5053623;28;20234;-85
2023/12/18 02:16:16;;;;;;;9.77;5.68;;;1.80;72.20;;;;;;5053745;28;20264;-85
2023/12/18 02:18:44;;;;;;;6.53;4.80;;;1.80;72.70;;;;;;5053459;28;20246;-84
2023/12/18 02:21:11;;;;;;;7.28;5.15;;;1.80;72.90;;;;;;5053478;28;20557;-84
2023/12/18 02:23:40;;;;;;;5.22;4.13;;;1.80;72.60;;;;;;5053025;28;20217;-84
2023/12/18 02:26:07;;;;;;;6.45;4.78;;;1.90;72.80;;;;;;5053226;28;20704;-85
2023/12/18 02:28:34;;;;;;;8.25;3.90;;;1.80;72.60;;;;;;5052621;28;20749;-84
2023/12/18 02:31:03;;;;;;;6.47;3.60;;;1.80;73.30;;;;;;5052710;28;20725;-85
2023/12/18 02:33:31;;;;;;;6.20;3.67;;;1.80;73.20;;;;;;5052913;28;20286;-85
2023/12/18 02:35:59;;;;;;;7.20;5.05;;;1.90;73.20;;;;;;5052959;28;20277;-84
2023/12/18 02:38:26;;;;;;;8.43;5.60;;;1.90;72.80;;;;;;5053445;28;20245;-85
2023/12/18 02:40:55;;;;;;;8.00;5.70;;;1.80;73.00;;;;;;5053375;28;20268;-84
2023/12/18 02:43:22;;;;;;;8.00;6.55;;;1.70;73.40;;;;;;5053405;28;20293;-84
2023/12/18 02:45:49;;;;;;;5.95;4.53;;;1.70;74.20;;;;;;5052791;28;20211;-85
2023/12/18 02:48:16;;;;;;;7.30;4.35;;;1.70;74.10;;;;;;5053255;28;20191;-84
2023/12/18 02:50:43;;;;;;;5.85;4.15;;;1.80;74.10;;;;;;5052952;28;20229;-84
2023/12/18 02:53:10;;;;;;;8.77;4.43;;;1.80;73.10;;;;;;5052434;28;20229;-85
2023/12/18 02:55:37;;;;;;;12.68;6.32;;;1.70;72.20;;;;;;5053257;28;20226;-84
2023/12/18 02:58:05;;;;;;;9.70;6.55;;;1.80;72.20;;;;;;5053188;28;20226;-84
2023/12/18 03:00:32;;;;;;;8.32;4.93;;;1.80;72.40;;;;;;5052726;28;20278;-85
2023/12/18 03:02:59;;;;;;;6.18;2.92;;;1.80;72.60;;;;;;5052862;28;20195;-85
2023/12/18 03:05:26;;;;;;;4.82;3.03;;;1.70;74.10;;;;;;5053071;28;20639;-84
2023/12/18 03:07:53;;;;;;;4.68;2.30;;;1.70;75.50;;;;;;5052576;28;20230;-85
2023/12/18 03:10:20;;;;;;;5.95;2.85;;;1.70;76.00;;;;;;5053034;28;20226;-85
2023/12/18 03:12:47;;;;;;;3.78;2.00;;;1.70;76.70;;;;;;5052753;28;20233;-85
2023/12/18 03:15:16;;;;;;;6.00;2.95;;;1.80;77.10;;;;;;5054665;28;20225;-85
2023/12/18 03:17:43;;;;;;;5.45;2.75;;;1.80;76.30;;;;;;5056826;28;20282;-84
2023/12/18 03:20:10;;;;;;;3.50;2.90;;;1.80;75.80;;;;;;5056428;28;20245;-85
2023/12/18 03:22:37;;;;;;;4.45;2.72;;;1.90;75.00;;;;;;5056714;28;20277;-84
2023/12/18 03:25:05;;;;;;;3.42;2.80;;;1.90;74.90;;;;;;5056359;28;20647;-85
2023/12/18 03:27:32;;;;;;;3.30;2.30;;;1.90;76.00;;;;;;5056724;28;20611;-85
2023/12/18 03:30:00;;;;;;;3.45;2.22;;;1.90;76.30;;;;;;5056536;28;20604;-85
2023/12/18 03:32:28;;;;;;;4.65;2.60;;;1.90;75.80;;;;;;5056097;28;20278;-84
2023/12/18 03:34:55;;;;;;;4.05;2.60;;;2.00;75.70;;;;;;5056178;28;20238;-84
2023/12/18 03:37:22;;;;;;;3.40;2.40;;;2.00;76.00;;;;;;5056264;28;20590;-84
2023/12/18 03:39:49;;;;;;;3.00;2.30;;;2.00;75.90;;;;;;5056029;28;20226;-84
2023/12/18 03:42:16;;;;;;;3.28;2.17;;;2.00;75.60;;;;;;5056441;28;20226;-84
2023/12/18 03:44:43;;;;;;;3.40;2.28;;;1.90;75.80;;;;;;5055621;28;20211;-85
2023/12/18 03:47:10;;;;;;;3.88;2.53;;;1.90;75.90;;;;;;5055493;28;20229;-85
2023/12/18 03:49:39;;;;;;;3.63;2.10;;;2.00;75.50;;;;;;5056297;28;20273;-85
2023/12/18 03:52:06;;;;;;;3.67;2.17;;;2.00;74.70;;;;;;5055811;28;20281;-85
2023/12/18 03:54:33;;;;;;;4.78;2.50;;;1.90;73.90;;;;;;5056038;28;20291;-85
2023/12/18 03:57:00;;;;;;;4.47;3.30;;;2.00;73.50;;;;;;5056107;28;20277;-85
2023/12/18 03:59:27;;;;;;;3.70;2.10;;;1.90;73.20;;;;;;5055633;28;20274;-85
2023/12/18 04:01:54;;;;;;;3.55;2.70;;;1.90;72.70;;;;;;5056176;28;20187;-85
2023/12/18 04:04:21;;;;;;;4.85;3.00;;;1.80;71.80;;;;;;5055407;28;20242;-85
2023/12/18 04:06:49;;;;;;;4.55;2.58;;;1.90;71.20;;;;;;5055783;28;20226;-85
2023/12/18 04:09:16;;;;;;;3.45;2.42;;;1.80;70.70;;;;;;5055789;28;20278;-85
2023/12/18 04:11:43;;;;;;;4.93;2.25;;;1.80;70.70;;;;;;5055531;28;20264;-85
2023/12/18 04:14:11;;;;;;;3.90;2.28;;;1.70;70.70;;;;;;5055604;28;20210;-85
2023/12/18 04:16:38;;;;;;;4.22;2.20;;;1.70;70.80;;;;;;5055715;28;20266;-85
2023/12/18 04:19:05;;;;;;;4.28;2.38;;;1.70;70.80;;;;;;5055669;28;20226;-85
2023/12/18 04:21:32;;;;;;;6.35;2.75;;;1.70;70.60;;;;;;5055329;28;20663;-85
2023/12/18 04:24:01;;;;;;;4.28;2.60;;;1.60;70.50;;;;;;5054931;28;20223;-85
2023/12/18 04:26:28;;;;;;;3.78;2.75;;;1.60;70.60;;;;;;5054354;28;20202;-85
2023/12/18 04:28:55;;;;;;;4.13;2.30;;;1.50;70.90;;;;;;5055783;28;20199;-85
2023/12/18 04:31:23;;;;;;;4.20;2.20;;;1.50;71.10;;;;;;5055485;28;20278;-84
2023/12/18 04:33:49;;;;;;;4.10;2.53;;;1.50;70.50;;;;;;5055208;28;20275;-85
2023/12/18 04:36:16;;;;;;;5.15;3.20;;;1.50;70.10;;;;;;5055106;28;20361;-84
2023/12/18 04:38:45;;;;;;;5.30;3.13;;;1.50;69.90;;;;;;5054808;28;20231;-84
2023/12/18 04:41:20;;;;;;;5.28;3.08;;;1.50;70.00;;;;;;5055204;28;20287;-85
2023/12/18 04:43:47;;;;;;;6.32;3.60;;;1.40;70.10;;;;;;5054964;28;20183;-85
2023/12/18 04:46:20;;;;;;;4.35;2.60;;;1.40;70.30;;;;;;5054850;28;20261;-84
2023/12/18 04:48:47;;;;;;;5.72;3.13;;;1.30;70.50;;;;;;5055303;28;20278;-84
2023/12/18 04:51:14;;;;;;;5.03;3.13;;;1.40;71.00;;;;;;5055186;28;20273;-84
2023/12/18 04:53:41;;;;;;;4.90;2.58;;;1.40;71.30;;;;;;5054777;28;20249;-84
2023/12/18 04:56:08;;;;;;;5.85;2.72;;;1.40;70.90;;;;;;5054930;28;20229;-86
2023/12/18 04:58:37;;;;;;;5.30;3.03;;;1.30;70.60;;;;;;5054687;28;20230;-85
2023/12/18 05:01:04;;;;;;;5.05;2.63;;;1.30;70.70;;;;;;5054154;28;20285;-86
2023/12/18 05:03:31;;;;;;;7.13;2.97;;;1.40;70.70;;;;;;5055010;28;20248;-86
2023/12/18 05:05:58;;;;;;;5.05;2.67;;;1.40;70.90;;;;;;5054161;28;20213;-85
2023/12/18 05:08:25;;;;;;;6.60;2.17;;;1.40;71.10;;;;;;5054108;28;20274;-84
2023/12/18 05:10:52;;;;;;;4.18;2.70;;;1.30;70.90;;;;;;5054298;28;20217;-84
2023/12/18 05:13:23;;;;;;;4.07;2.60;;;1.40;70.70;;;;;;5054662;28;20229;-85
2023/12/18 05:15:53;;;;;;;5.22;3.25;;;1.40;69.60;;;;;;5054222;28;20194;-85
2023/12/18 05:18:20;;;;;;;9.32;6.15;;;1.30;70.60;;;;;;5054259;28;20203;-85
2023/12/18 05:20:47;;;;;;;10.35;6.55;;;1.40;71.70;;;;;;5053370;28;20245;-84
2023/12/18 05:23:14;;;;;;;8.38;6.07;;;1.30;72.40;;;;;;5054058;28;20191;-84
2023/12/18 05:25:41;;;;;;;8.98;6.43;;;1.30;73.70;;;;;;5054075;28;20295;-84
2023/12/18 05:28:08;;;;;;;7.20;4.15;;;1.30;73.70;;;;;;5054145;28;20229;-85
2023/12/18 05:30:36;;;;;;;7.50;4.90;;;1.30;73.30;;;;;;5054008;28;20226;-84
2023/12/18 05:33:05;;;;;;;6.65;4.15;;;1.30;72.80;;;;;;5053999;28;20273;-86
2023/12/18 05:35:32;;;;;;;5.95;3.33;;;1.40;72.90;;;;;;5053292;28;20278;-85
2023/12/18 05:37:59;;;;;;;7.80;5.35;;;1.30;73.30;;;;;;5053933;28;20226;-85
2023/12/18 05:40:26;;;;;;;7.60;5.07;;;1.20;74.90;;;;;;5054009;28;20600;-85
2023/12/18 05:42:53;;;;;;;4.68;3.45;;;1.10;77.10;;;;;;5053439;28;20237;-86
2023/12/18 05:45:20;;;;;;;7.30;4.93;;;1.10;77.90;;;;;;5053440;28;20678;-85
2023/12/18 05:47:47;;;;;;;6.70;4.35;;;1.10;78.20;;;;;;5052902;28;20264;-85
2023/12/18 05:50:15;;;;;;;7.85;4.55;;;1.10;77.90;;;;;;5050463;28;20273;-84
2023/12/18 05:52:42;;;;;;;6.72;3.83;;;1.20;77.80;;;;;;5052302;28;20593;-85
2023/12/18 05:55:10;;;;;;;7.72;4.90;;;1.20;77.30;;;;;;5052388;28;20206;-84
2023/12/18 05:57:38;;;;;;;7.47;5.32;;;1.30;76.70;;;;;;5052667;28;20653;-84
2023/12/18 06:00:06;;;;;;;8.75;5.13;;;1.30;76.30;;;;;;5052803;28;20740;-85
2023/12/18 06:02:33;;;;;;;9.73;7.00;;;1.30;76.20;;;;;;5051992;28;20211;-83
2023/12/18 06:05:01;;;;;;;11.73;6.05;;;1.30;76.20;;;;;;5052038;28;20250;-85
2023/12/18 06:07:29;;;;;;;10.32;5.57;;;1.30;76.10;;;;;;5052022;28;20248;-85
2023/12/18 06:09:57;;;;;;;8.45;5.72;;;1.50;75.40;;;;;;5052536;28;20202;-85
2023/12/18 06:12:24;;;;;;;7.65;5.15;;;1.40;74.70;;;;;;5052211;28;20277;-85
2023/12/18 06:14:50;;;;;;;7.50;5.43;;;1.40;75.00;;;;;;5052089;28;20232;-85
2023/12/18 06:17:17;;;;;;;6.88;4.78;;;1.40;73.60;;;;;;5052587;28;20677;-84
2023/12/18 06:19:44;;;;;;;7.40;5.30;;;1.40;73.70;;;;;;5052670;28;20610;-84
2023/12/18 06:22:12;;;;;;;8.55;5.72;;;1.40;74.30;;;;;;5051958;28;20194;-84
2023/12/18 06:24:41;;;;;;;9.32;5.47;;;1.40;74.30;;;;;;5052023;28;20233;-85
2023/12/18 06:27:08;;;;;;;11.20;6.18;;;1.40;74.20;;;;;;5052533;28;20252;-85
2023/12/18 06:29:35;;;;;;;9.05;5.75;;;1.30;74.50;;;;;;5041366;28;20215;-86
2023/12/18 06:32:02;;;;;;;10.25;5.82;;;1.30;75.80;;;;;;5033388;28;20732;-85
2023/12/18 06:34:29;;;;;;;8.88;5.75;;;1.40;75.80;;;;;;5046249;28;20210;-84
2023/12/18 06:36:56;;;;;;;10.77;6.88;;;1.50;74.90;;;;;;5051651;28;20278;-85
2023/12/18 06:39:23;;;;;;;7.40;6.30;;;1.40;73.90;;;;;;5052225;28;20226;-85
2023/12/18 06:41:52;;;;;;;9.77;6.82;;;1.40;73.30;;;;;;5051693;28;20224;-82
2023/12/18 06:44:21;;;;;;;7.75;5.53;;;1.40;72.80;;;;;;5035994;28;20689;-83
2023/12/18 06:46:48;;;;;;;10.63;4.68;;;1.40;72.40;;;;;;5051512;28;20230;-82
2023/12/18 06:49:15;;;;;;;8.52;5.03;;;1.50;74.10;;;;;;5051073;28;20248;-83
2023/12/18 06:51:44;;;;;;;7.15;5.63;;;1.60;75.40;;;;;;5055853;28;20193;-83
2023/12/18 06:54:15;;;;;;;9.05;5.80;;;1.70;75.50;;;;;;5055946;28;20222;-83
2023/12/18 06:56:47;;;;;;;9.02;6.63;;;1.70;74.60;;;;;;5055471;28;20238;-83
2023/12/18 06:59:19;;;;;;;8.77;5.22;;;1.90;74.10;;;;;;5041778;28;20691;-83
2023/12/18 07:01:51;;;;;;;6.85;5.05;;;2.00;73.60;;;;;;5055095;28;20539;-83
2023/12/18 07:04:18;;;;;;;10.05;5.78;;;2.10;73.30;;;;;;5054331;28;20214;-84
2023/12/18 07:06:45;;;;;;;8.30;4.97;;;2.10;71.90;;;;;;5055708;28;20219;-84
2023/12/18 07:09:12;;;;;;;7.82;5.07;;;2.20;70.90;;;;;;5055713;28;20289;-83
2023/12/18 07:11:39;;;;;;;6.38;4.40;;;2.10;69.70;;;;;;5055425;28;20225;-84
2023/12/18 07:14:06;;;;;;;8.18;5.97;;;2.10;68.90;;;;;;5055138;28;20657;-85
2023/12/18 07:16:35;;;;;;;7.05;5.30;;;2.00;68.10;;;;;;5054729;28;20250;-85
2023/12/18 07:19:02;;;;;;;8.35;5.80;;;2.00;67.80;;;;;;5054987;28;20197;-85
2023/12/18 07:21:29;;;;;;;8.48;6.38;;;2.00;67.90;;;;;;5054961;28;20642;-85
2023/12/18 07:23:56;;;;;;;6.85;5.03;;;2.00;67.50;;;;;;5055110;28;20609;-85
2023/12/18 07:26:23;;;;;;;8.57;5.57;;;2.00;67.40;;;;;;5055470;28;20299;-85
2023/12/18 07:28:50;;;;;;;15.25;9.35;;;2.10;67.70;;;;;;5055115;28;20215;-85
2023/12/18 07:31:18;;;;;;;15.65;9.00;;;2.00;68.60;;;;;;5055131;28;20266;-85
2023/12/18 07:33:46;;;;;;;17.27;9.80;;;2.00;70.00;;;;;;5055231;28;20649;-85
2023/12/18 07:36:13;;;;;;;21.05;12.02;;;2.20;70.50;;;;;;5055140;28;20183;-85
2023/12/18 07:38:40;;;;;;;14.90;10.50;;;2.20;70.70;;;;;;5054912;28;20249;-84
2023/12/18 07:41:07;;;;;;;11.82;8.57;;;2.40;70.90;;;;;;5054460;28;20197;-84
2023/12/18 07:43:34;;;;;;;11.57;7.40;;;2.40;71.10;;;;;;5053348;28;20645;-85
2023/12/18 07:46:01;;;;;;;10.10;7.43;;;2.60;71.70;;;;;;5054232;28;20325;-86
2023/12/18 07:48:28;;;;;;;12.30;6.20;;;2.70;71.50;;;;;;5054879;28;20237;-86
2023/12/18 07:50:57;;;;;;;18.45;10.23;;;2.90;70.80;;;;;;5054670;28;20270;-85
2023/12/18 07:53:24;;;;;;;13.27;9.32;;;3.00;69.40;;;;;;5054067;28;20183;-84
2023/12/18 07:55:51;;;;;;;11.57;7.15;;;3.10;68.90;;;;;;5053602;28;20195;-85
2023/12/18 07:58:18;;;;;;;10.82;6.70;;;3.10;68.50;;;;;;5054496;28;20286;-85
2023/12/18 08:00:44;;;;;;;9.48;5.57;;;3.10;67.70;;;;;;5053141;28;20187;-85
2023/12/18 08:03:11;;;;;;;13.07;6.75;;;3.10;67.50;;;;;;5053535;28;20285;-85
2023/12/18 08:05:38;;;;;;;12.32;7.40;;;3.10;67.90;;;;;;5052710;28;20210;-85
2023/12/18 08:08:10;;;;;;;10.52;6.45;;;3.10;68.20;;;;;;5053982;28;20269;-82
2023/12/18 08:10:37;;;;;;;11.82;6.63;;;3.00;68.00;;;;;;5054521;28;20672;-85
2023/12/18 08:13:04;;;;;;;14.95;7.85;;;3.00;68.10;;;;;;5055345;28;20218;-85
2023/12/18 08:15:32;;;;;;;15.95;10.35;;;3.00;68.40;;;;;;5054978;28;20205;-86
2023/12/18 08:17:59;;;;;;;11.95;8.68;;;3.00;68.60;;;;;;5054908;28;20223;-85
2023/12/18 08:20:27;;;;;;;12.65;8.63;;;3.00;68.90;;;;;;5054809;28;20278;-85
2023/12/18 08:22:53;;;;;;;13.27;10.13;;;3.00;68.90;;;;;;5054811;28;20226;-86
2023/12/18 08:25:22;;;;;;;14.65;9.95;;;3.00;69.70;;;;;;5055008;28;20593;-86
2023/12/18 08:27:48;;;;;;;11.90;9.40;;;3.00;70.20;;;;;;5055247;28;20285;-86
2023/12/18 08:30:16;;;;;;;12.95;8.48;;;3.10;71.00;;;;;;5054710;28;20283;-86
2023/12/18 08:32:43;;;;;;;16.42;12.57;;;3.10;71.80;;;;;;5054932;28;20209;-86
2023/12/18 08:35:10;;;;;;;13.45;9.85;;;3.10;72.10;;;;;;5054803;28;20281;-85
2023/12/18 08:37:37;;;;;;;16.75;11.32;;;3.10;73.00;;;;;;5054879;28;20730;-85
2023/12/18 08:40:04;;;;;;;13.50;9.43;;;3.10;73.40;;;;;;5054805;28;20298;-85
2023/12/18 08:42:33;;;;;;;11.60;8.45;;;3.10;74.30;;;;;;5054871;28;20250;-84
2023/12/18 08:45:00;;;;;;;11.63;7.28;;;3.10;74.90;;;;;;5054765;28;20273;-85
2023/12/18 08:47:27;;;;;;;12.73;7.63;;;3.20;75.40;;;;;;5054732;28;20689;-84
2023/12/18 08:49:54;;;;;;;9.05;6.53;;;3.30;75.70;;;;;;5054638;28;20294;-85
2023/12/18 08:52:21;;;;;;;7.95;5.90;;;3.50;76.20;;;;;;5054573;28;20554;-84
2023/12/18 08:54:47;;;;;;;10.77;8.23;;;3.70;76.30;;;;;;5054663;28;20277;-84
2023/12/18 08:57:14;;;;;;;14.00;8.77;;;3.90;76.10;;;;;;5054172;28;20290;-85
2023/12/18 08:59:43;;;;;;;11.10;8.15;;;4.10;76.20;;;;;;5054441;28;20237;-85
2023/12/18 09:02:10;;;;;;;10.75;7.45;;;4.30;76.60;;;;;;5054320;28;20273;-85
2023/12/18 09:04:37;;;;;;;9.77;7.53;;;4.40;76.80;;;;;;5054274;28;20221;-85
2023/12/18 09:07:04;;;;;;;10.93;6.90;;;4.60;76.50;;;;;;5054208;28;20301;-85
2023/12/18 09:09:31;;;;;;;9.55;6.80;;;4.80;76.20;;;;;;5054234;28;20237;-85
2023/12/18 09:11:58;;;;;;;15.75;11.23;;;5.10;76.10;;;;;;5054044;28;20277;-85
2023/12/18 09:14:25;;;;;;;13.40;9.05;;;5.30;76.50;;;;;;5053569;28;20281;-84
2023/12/18 09:16:53;;;;;;;16.45;9.10;;;5.60;76.70;;;;;;5054077;28;20294;-84
2023/12/18 09:19:20;;;;;;;18.70;10.90;;;5.90;77.00;;;;;;5053745;28;20281;-84
2023/12/18 09:21:47;;;;;;;21.13;12.63;;;6.00;75.50;;;;;;5054022;28;20226;-83
2023/12/18 09:24:14;;;;;;;18.73;13.85;;;6.30;75.10;;;;;;5053674;28;20278;-84
2023/12/18 09:26:41;;;;;;;20.23;13.90;;;6.50;74.40;;;;;;5053730;28;20301;-84
2023/12/18 09:29:08;;;;;;;13.77;10.70;;;6.70;74.00;;;;;;5053893;28;20226;-83
2023/12/18 09:31:35;;;;;;;9.38;7.05;;;7.00;73.00;;;;;;5053875;28;20276;-80
2023/12/18 09:34:03;;;;;;;7.93;5.30;;;7.20;72.40;;;;;;5053799;28;20222;-80
2023/12/18 09:36:30;;;;;;;7.40;5.40;;;7.40;71.50;;;;;;5053872;28;20263;-81
2023/12/18 09:38:57;;;;;;;7.75;5.25;;;7.60;70.70;;;;;;5053803;28;20191;-80
2023/12/18 09:41:24;;;;;;;7.00;5.65;;;7.80;70.50;;;;;;5053734;28;20230;-80
2023/12/18 09:43:53;;;;;;;8.75;5.95;;;8.10;70.10;;;;;;5053818;28;20248;-80
2023/12/18 09:46:23;;;;;;;10.02;6.60;;;8.30;69.00;;;;;;5053179;28;20234;-80
2023/12/18 09:48:50;;;;;;;6.05;4.55;;;8.60;68.40;;;;;;5053838;28;20262;-80
2023/12/18 09:51:22;;;;;;;8.90;6.25;;;8.80;67.60;;;;;;5053704;28;20252;-80
2023/12/18 09:53:51;;;;;;;9.13;5.70;;;9.00;67.70;;;;;;5054000;28;20187;-80
2023/12/18 09:56:20;;;;;;;14.32;5.63;;;9.20;65.70;;;;;;5053649;28;20248;-81
2023/12/18 09:58:47;;;;;;;9.52;5.88;;;9.40;66.10;;;;;;5053581;28;20336;-81
2023/12/18 10:01:15;;;;;;;9.63;4.53;;;9.60;65.50;;;;;;5053561;28;20237;-80
2023/12/18 10:03:42;;;;;;;8.98;4.70;;;9.90;65.50;;;;;;5053562;28;20282;-81
2023/12/18 10:06:09;;;;;;;7.05;4.10;;;10.10;63.80;;;;;;5053480;28;20286;-80
2023/12/18 10:08:38;;;;;;;7.07;4.47;;;10.30;62.90;;;;;;5053520;28;20190;-80
2023/12/18 10:11:05;;;;;;;11.63;3.90;;;10.50;62.60;;;;;;5053354;28;20561;-81
2023/12/18 10:13:32;;;;;;;9.52;4.45;;;10.80;62.40;;;;;;5053038;28;20931;-81
2023/12/18 10:15:59;;;;;;;7.10;3.80;;;11.00;61.90;;;;;;5053071;28;20730;-81
2023/12/18 10:18:26;;;;;;;7.10;3.80;;;11.20;60.10;;;;;;5053375;28;20491;-81
2023/12/18 10:20:54;;;;;;;5.33;2.83;;;11.40;60.20;;;;;;5053315;28;20433;-81
2023/12/18 10:23:21;;;;;;;6.70;4.20;;;11.60;59.90;;;;;;5053235;28;20433;-81
2023/12/18 10:25:49;;;;;;;9.83;3.63;;;11.70;58.30;;;;;;5052425;28;20441;-81
2023/12/18 10:28:17;;;;;;;17.67;8.33;;;12.00;58.80;;;;;;5053096;28;20519;-81
2023/12/18 10:30:44;;;;;;;14.53;6.80;;;12.10;58.40;;;;;;5052914;28;20433;-81
2023/12/18 10:33:13;;;;;;;8.03;4.30;;;12.30;58.40;;;;;;5052851;28;20527;-81
2023/12/18 10:35:41;;;;;;;6.50;3.70;;;12.50;58.40;;;;;;5052792;28;20872;-82
2023/12/18 10:38:09;;;;;;;7.40;4.33;;;12.60;57.70;;;;;;5053144;28;20480;-81
2023/12/18 10:40:36;;;;;;;7.17;4.60;;;12.80;57.40;;;;;;5052722;28;20935;-81
2023/12/18 10:43:12;;;;;;;5.07;3.70;;;13.00;56.60;;;;;;5052639;28;20970;-81
2023/12/18 10:45:40;;;;;;;6.93;5.10;;;13.10;55.40;;;;;;5052982;28;20500;-82
2023/12/18 10:48:08;;;;;;;5.30;3.87;;;13.20;55.50;;;;;;5052976;28;20504;-81
2023/12/18 10:50:37;;;;;;;5.40;3.70;;;13.40;55.30;;;;;;5052773;28;20429;-82
2023/12/18 10:53:05;;;;;;;7.40;4.13;;;13.50;53.70;;;;;;5052875;28;20444;-81
2023/12/18 10:55:34;;;;;;;8.43;4.80;;;13.60;53.60;;;;;;5052821;28;20429;-81
2023/12/18 10:58:02;;;;;;;7.57;4.60;;;13.70;53.50;;;;;;5052471;28;20494;-82
2023/12/18 11:00:33;;;;;;;9.10;4.83;;;14.00;52.90;;;;;;5052768;28;20469;-81
2023/12/18 11:03:02;;;;;;;6.77;3.97;;;14.20;52.80;;;;;;5052822;28;20448;-81
2023/12/18 11:05:30;;;;;;;8.20;4.10;;;14.50;53.30;;;;;;5052610;28;20468;-81
2023/12/18 11:07:58;;;;;;;7.57;4.00;;;14.70;53.60;;;;;;5052557;28;20815;-82
2023/12/18 11:10:26;;;;;;;11.30;5.43;;;14.90;53.00;;;;;;5052731;28;20435;-81
2023/12/18 11:13:00;;;;;;;13.40;5.13;;;15.10;52.70;;;;;;5052116;28;20468;-82
2023/12/18 11:15:35;;;;;;;9.03;4.53;;;15.20;51.80;;;;;;5052780;28;20508;-81
2023/12/18 11:18:14;;;;;;;11.27;5.00;;;15.40;50.50;;;;;;5052694;28;20809;-81
2023/12/18 11:20:43;;;;;;;9.30;5.10;;;15.60;50.50;;;;;;5052233;28;20463;-81
2023/12/18 11:23:11;;;;;;;10.83;5.33;;;15.70;50.40;;;;;;5052408;28;20438;-81
2023/12/18 11:25:43;;;;;;;7.70;4.60;;;15.90;49.90;;;;;;5052417;28;20439;-81
2023/12/18 11:28:10;;;;;;;10.40;5.27;;;16.00;50.30;;;;;;5052462;28;20493;-82
2023/12/18 11:30:43;;;;;;;8.73;4.30;;;16.10;49.50;;;;;;5052071;28;20863;-81
2023/12/18 11:33:11;;;;;;;11.70;5.20;;;16.20;48.70;;;;;;5052391;28;20509;-81
2023/12/18 11:35:43;;;;;;;12.80;5.90;;;16.30;49.40;;;;;;5052981;28;20556;-81
2023/12/18 11:38:14;;;;;;;11.90;5.63;;;16.30;49.40;;;;;;5056062;28;20524;-82
2023/12/18 11:40:42;;;;;;;8.73;4.17;;;16.40;48.70;;;;;;5056015;28;20492;-82
2023/12/18 11:43:11;;;;;;;7.03;3.60;;;16.40;48.30;;;;;;5055826;28;20437;-82
2023/12/18 11:45:42;;;;;;;6.70;3.20;;;16.50;48.00;;;;;;5055580;28;20435;-82
2023/12/18 11:48:14;;;;;;;9.63;4.90;;;16.60;47.30;;;;;;5055803;28;20531;-82
2023/12/18 11:50:42;;;;;;;9.70;3.90;;;16.60;47.00;;;;;;5055751;28;20850;-82
2023/12/18 11:53:19;;;;;;;5.33;3.20;;;16.70;46.40;;;;;;5055498;28;20518;-82
2023/12/18 11:55:51;;;;;;;5.03;2.77;;;16.60;46.30;;;;;;5055740;28;20431;-81
2023/12/18 11:58:20;;;;;;;5.27;2.80;;;16.60;47.70;;;;;;5055713;28;20434;-81
2023/12/18 12:00:49;;;;;;;7.97;3.30;;;16.50;46.80;;;;;;5055793;28;20435;-81
2023/12/18 12:03:17;;;;;;;4.80;2.60;;;16.40;47.20;;;;;;5055338;28;20443;-81
2023/12/18 12:05:46;;;;;;;7.40;2.93;;;16.20;47.30;;;;;;5055524;28;20476;-81
2023/12/18 12:08:13;;;;;;;5.90;2.20;;;16.00;47.50;;;;;;5055022;28;20978;-81
2023/12/18 12:10:41;;;;;;;5.60;3.93;;;15.80;47.90;;;;;;5055403;28;20518;-81
2023/12/18 12:13:08;;;;;;;5.67;3.77;;;15.60;48.00;;;;;;5055618;28;20436;-81
2023/12/18 12:15:35;;;;;;;5.50;3.13;;;15.50;48.30;;;;;;5055375;28;20522;-82
2023/12/18 12:18:05;;;;;;;5.97;3.50;;;15.40;48.70;;;;;;5054984;28;20531;-81
2023/12/18 12:20:32;;;;;;;8.13;4.17;;;15.20;48.60;;;;;;5055620;28;20438;-82
2023/12/18 12:22:59;;;;;;;7.63;4.33;;;15.10;48.30;;;;;;5054904;28;20506;-82
2023/12/18 12:25:26;;;;;;;5.60;3.30;;;15.10;48.10;;;;;;5054788;28;20919;-81
2023/12/18 12:27:53;;;;;;;11.60;3.50;;;15.00;48.10;;;;;;5054659;28;20563;-81
2023/12/18 12:30:21;;;;;;;7.10;4.20;;;15.10;48.00;;;;;;5055094;28;20516;-81
2023/12/18 12:32:48;;;;;;;8.10;3.93;;;15.10;47.30;;;;;;5054926;28;20434;-81
2023/12/18 12:35:18;;;;;;;6.80;4.97;;;15.20;47.30;;;;;;5054681;28;20968;-81
2023/12/18 12:37:46;;;;;;;7.13;4.23;;;15.30;47.40;;;;;;5054982;28;20503;-82
2023/12/18 12:40:13;;;;;;;6.13;4.10;;;15.40;47.60;;;;;;5054550;28;20470;-81
2023/12/18 12:42:42;;;;;;;8.07;4.90;;;15.30;47.70;;;;;;5054785;28;20492;-81
2023/12/18 12:45:10;;;;;;;8.77;5.20;;;15.20;47.90;;;;;;5054460;28;20440;-81
2023/12/18 12:47:39;;;;;;;7.60;4.93;;;15.10;48.50;;;;;;5054017;28;20517;-81
2023/12/18 12:50:07;;;;;;;8.70;4.63;;;15.00;48.90;;;;;;5054673;28;20473;-81
2023/12/18 12:52:41;;;;;;;7.30;4.30;;;14.90;49.30;;;;;;5054197;28;20573;-81
2023/12/18 12:55:09;;;;;;;9.00;5.00;;;14.80;49.70;;;;;;5054643;28;20504;-81
2023/12/18 12:57:36;;;;;;;9.20;4.37;;;14.70;50.00;;;;;;5054580;28;20544;-81